Aviation Digital Data Service (ADDS)

Output produced by METARs form (1010 UTC 18 January 2017)
found at http://aviationweather.gov/adds/metars/
 
KBDR 181004Z 1810/1906 03008KT 6SM BR OVC007 
     FM181500 01009KT 2SM BR OVC009 
     FM182100 01007KT 4SM BR BKN008 OVC015 
     FM190300 VRB04KT 6SM BR BKN010 OVC020